sensor_id;sensor_type;location;lat;lon;timestamp;temperature;humidity
12268;DHT22;6196;48.398;11.736;2023-03-15T00:01:21;4.20;99.90
12268;DHT22;6196;48.398;11.736;2023-03-15T00:03:52;4.20;99.90
12268;DHT22;6196;48.398;11.736;2023-03-15T00:06:22;4.30;99.90
12268;DHT22;6196;48.398;11.736;2023-03-15T00:08:49;4.30;99.90
12268;DHT22;6196;48.398;11.736;2023-03-15T00:11:18;4.30;99.90
12268;DHT22;6196;48.398;11.736;2023-03-15T00:13:45;4.40;99.90
12268;DHT22;6196;48.398;11.736;2023-03-15T00:16:12;4.50;99.90
12268;DHT22;6196;48.398;11.736;2023-03-15T00:18:46;4.40;99.90
12268;DHT22;6196;48.398;11.736;2023-03-15T00:21:14;4.40;99.90
12268;DHT22;6196;48.398;11.736;2023-03-15T00:23:41;4.40;99.90
12268;DHT22;6196;48.398;11.736;2023-03-15T00:26:07;4.50;99.90
12268;DHT22;6196;48.398;11.736;2023-03-15T00:28:34;4.50;99.90
12268;DHT22;6196;48.398;11.736;2023-03-15T00:31:03;4.40;99.90
12268;DHT22;6196;48.398;11.736;2023-03-15T00:33:31;4.40;99.90
12268;DHT22;6196;48.398;11.736;2023-03-15T00:36:05;4.40;99.90
12268;DHT22;6196;48.398;11.736;2023-03-15T00:38:34;4.30;99.90
12268;DHT22;6196;48.398;11.736;2023-03-15T00:41:06;4.20;99.90
12268;DHT22;6196;48.398;11.736;2023-03-15T00:43:34;4.20;99.90
12268;DHT22;6196;48.398;11.736;2023-03-15T00:46:02;4.10;99.90
12268;DHT22;6196;48.398;11.736;2023-03-15T00:48:30;4.00;99.90
12268;DHT22;6196;48.398;11.736;2023-03-15T00:51:15;4.00;99.90
12268;DHT22;6196;48.398;11.736;2023-03-15T00:53:45;4.00;99.90
12268;DHT22;6196;48.398;11.736;2023-03-15T00:56:15;3.90;99.90
12268;DHT22;6196;48.398;11.736;2023-03-15T00:58:44;3.80;99.90
12268;DHT22;6196;48.398;11.736;2023-03-15T01:01:17;3.80;99.90
12268;DHT22;6196;48.398;11.736;2023-03-15T01:03:46;3.90;99.90
12268;DHT22;6196;48.398;11.736;2023-03-15T01:06:16;3.80;99.90
12268;DHT22;6196;48.398;11.736;2023-03-15T01:08:45;3.70;99.90
12268;DHT22;6196;48.398;11.736;2023-03-15T01:11:15;3.60;99.90
12268;DHT22;6196;48.398;11.736;2023-03-15T01:13:46;3.50;99.90
12268;DHT22;6196;48.398;11.736;2023-03-15T01:16:13;3.60;99.90
12268;DHT22;6196;48.398;11.736;2023-03-15T01:18:41;3.60;99.90
12268;DHT22;6196;48.398;11.736;2023-03-15T01:21:10;3.60;99.90
12268;DHT22;6196;48.398;11.736;2023-03-15T01:23:38;3.50;99.90
12268;DHT22;6196;48.398;11.736;2023-03-15T01:26:08;3.40;99.90
12268;DHT22;6196;48.398;11.736;2023-03-15T01:28:37;3.30;99.90
12268;DHT22;6196;48.398;11.736;2023-03-15T01:31:04;3.20;99.90
12268;DHT22;6196;48.398;11.736;2023-03-15T01:33:31;3.30;99.90
12268;DHT22;6196;48.398;11.736;2023-03-15T01:36:05;3.40;99.90
12268;DHT22;6196;48.398;11.736;2023-03-15T01:38:33;3.50;99.90
12268;DHT22;6196;48.398;11.736;2023-03-15T01:41:00;3.30;99.90
12268;DHT22;6196;48.398;11.736;2023-03-15T01:43:29;3.20;99.90
12268;DHT22;6196;48.398;11.736;2023-03-15T01:46:06;3.00;99.90
12268;DHT22;6196;48.398;11.736;2023-03-15T01:48:56;3.20;99.90
12268;DHT22;6196;48.398;11.736;2023-03-15T01:54:22;3.10;99.90
12268;DHT22;6196;48.398;11.736;2023-03-15T01:57:06;3.10;99.90
12268;DHT22;6196;48.398;11.736;2023-03-15T01:59:39;3.20;99.90
12268;DHT22;6196;48.398;11.736;2023-03-15T02:02:10;3.20;99.90
12268;DHT22;6196;48.398;11.736;2023-03-15T02:04:45;3.20;99.90
12268;DHT22;6196;48.398;11.736;2023-03-15T02:07:15;3.20;99.90
12268;DHT22;6196;48.398;11.736;2023-03-15T02:09:58;3.20;99.90
12268;DHT22;6196;48.398;11.736;2023-03-15T02:12:39;3.20;99.90
12268;DHT22;6196;48.398;11.736;2023-03-15T02:15:08;3.30;99.90
12268;DHT22;6196;48.398;11.736;2023-03-15T02:17:39;3.20;99.90
12268;DHT22;6196;48.398;11.736;2023-03-15T02:23:17;3.20;99.90
12268;DHT22;6196;48.398;11.736;2023-03-15T02:28:25;3.30;99.90
12268;DHT22;6196;48.398;11.736;2023-03-15T02:30:52;3.40;99.90
12268;DHT22;6196;48.398;11.736;2023-03-15T02:33:29;3.40;99.90
12268;DHT22;6196;48.398;11.736;2023-03-15T02:36:18;3.50;99.90
12268;DHT22;6196;48.398;11.736;2023-03-15T02:38:50;3.40;99.90
12268;DHT22;6196;48.398;11.736;2023-03-15T02:41:23;3.40;99.90
12268;DHT22;6196;48.398;11.736;2023-03-15T02:44:10;3.40;99.90
12268;DHT22;6196;48.398;11.736;2023-03-15T02:46:41;3.30;99.90
12268;DHT22;6196;48.398;11.736;2023-03-15T02:49:09;3.30;99.90
12268;DHT22;6196;48.398;11.736;2023-03-15T02:51:37;3.30;99.90
12268;DHT22;6196;48.398;11.736;2023-03-15T02:54:04;3.10;99.90
12268;DHT22;6196;48.398;11.736;2023-03-15T02:56:31;2.90;99.90
12268;DHT22;6196;48.398;11.736;2023-03-15T02:58:59;2.90;99.90
12268;DHT22;6196;48.398;11.736;2023-03-15T03:01:26;2.90;99.90
12268;DHT22;6196;48.398;11.736;2023-03-15T03:03:53;2.80;99.90
12268;DHT22;6196;48.398;11.736;2023-03-15T03:06:20;2.60;99.90
12268;DHT22;6196;48.398;11.736;2023-03-15T03:08:47;2.50;99.90
12268;DHT22;6196;48.398;11.736;2023-03-15T03:11:14;2.40;99.90
12268;DHT22;6196;48.398;11.736;2023-03-15T03:13:42;2.40;99.90
12268;DHT22;6196;48.398;11.736;2023-03-15T03:16:09;2.30;99.90
12268;DHT22;6196;48.398;11.736;2023-03-15T03:18:36;2.40;99.90
12268;DHT22;6196;48.398;11.736;2023-03-15T03:21:05;2.40;99.90
12268;DHT22;6196;48.398;11.736;2023-03-15T03:23:34;2.40;99.90
12268;DHT22;6196;48.398;11.736;2023-03-15T03:26:02;2.30;99.90
12268;DHT22;6196;48.398;11.736;2023-03-15T03:28:30;2.30;99.90
12268;DHT22;6196;48.398;11.736;2023-03-15T03:30:57;2.40;99.90
12268;DHT22;6196;48.398;11.736;2023-03-15T03:33:24;2.40;99.90
12268;DHT22;6196;48.398;11.736;2023-03-15T03:35:51;2.30;99.90
12268;DHT22;6196;48.398;11.736;2023-03-15T03:38:19;2.40;99.90
12268;DHT22;6196;48.398;11.736;2023-03-15T03:40:46;2.50;99.90
12268;DHT22;6196;48.398;11.736;2023-03-15T03:43:13;2.40;99.90
12268;DHT22;6196;48.398;11.736;2023-03-15T03:45:40;2.40;99.90
12268;DHT22;6196;48.398;11.736;2023-03-15T03:48:07;2.40;99.90
12268;DHT22;6196;48.398;11.736;2023-03-15T03:50:34;2.40;99.90
12268;DHT22;6196;48.398;11.736;2023-03-15T03:53:01;2.40;99.90
12268;DHT22;6196;48.398;11.736;2023-03-15T03:55:28;2.30;99.90
12268;DHT22;6196;48.398;11.736;2023-03-15T03:57:55;2.40;99.90
12268;DHT22;6196;48.398;11.736;2023-03-15T04:00:21;2.20;99.90
12268;DHT22;6196;48.398;11.736;2023-03-15T04:02:49;2.10;99.90
12268;DHT22;6196;48.398;11.736;2023-03-15T04:05:20;2.10;99.90
12268;DHT22;6196;48.398;11.736;2023-03-15T04:07:46;2.10;99.90
12268;DHT22;6196;48.398;11.736;2023-03-15T04:12:42;2.10;99.90
12268;DHT22;6196;48.398;11.736;2023-03-15T04:15:10;2.10;99.90
12268;DHT22;6196;48.398;11.736;2023-03-15T04:17:37;2.10;99.90
12268;DHT22;6196;48.398;11.736;2023-03-15T04:20:05;2.10;99.90
12268;DHT22;6196;48.398;11.736;2023-03-15T04:22:34;2.00;99.90
12268;DHT22;6196;48.398;11.736;2023-03-15T04:25:01;2.00;99.90
12268;DHT22;6196;48.398;11.736;2023-03-15T04:27:29;1.90;99.90
12268;DHT22;6196;48.398;11.736;2023-03-15T04:29:55;1.90;99.90
12268;DHT22;6196;48.398;11.736;2023-03-15T04:32:22;1.90;99.90
12268;DHT22;6196;48.398;11.736;2023-03-15T04:34:49;1.90;99.90
12268;DHT22;6196;48.398;11.736;2023-03-15T04:37:17;1.70;99.90
12268;DHT22;6196;48.398;11.736;2023-03-15T04:39:44;1.90;99.90
12268;DHT22;6196;48.398;11.736;2023-03-15T04:42:11;1.90;99.90
12268;DHT22;6196;48.398;11.736;2023-03-15T04:44:38;1.90;99.90
12268;DHT22;6196;48.398;11.736;2023-03-15T04:47:05;1.90;99.90
12268;DHT22;6196;48.398;11.736;2023-03-15T04:49:32;1.90;99.90
12268;DHT22;6196;48.398;11.736;2023-03-15T04:51:59;1.90;99.90
12268;DHT22;6196;48.398;11.736;2023-03-15T04:54:26;2.00;99.90
12268;DHT22;6196;48.398;11.736;2023-03-15T04:56:53;2.10;99.90
12268;DHT22;6196;48.398;11.736;2023-03-15T04:59:20;2.00;99.90
12268;DHT22;6196;48.398;11.736;2023-03-15T05:01:47;2.00;99.90
12268;DHT22;6196;48.398;11.736;2023-03-15T05:04:14;2.10;99.90
12268;DHT22;6196;48.398;11.736;2023-03-15T05:06:41;2.10;99.90
12268;DHT22;6196;48.398;11.736;2023-03-15T05:09:08;2.00;99.90
12268;DHT22;6196;48.398;11.736;2023-03-15T05:11:45;2.00;99.90
12268;DHT22;6196;48.398;11.736;2023-03-15T05:14:12;2.00;99.90
12268;DHT22;6196;48.398;11.736;2023-03-15T05:16:39;1.90;99.90
12268;DHT22;6196;48.398;11.736;2023-03-15T05:19:07;1.90;99.90
12268;DHT22;6196;48.398;11.736;2023-03-15T05:21:33;2.00;99.90
12268;DHT22;6196;48.398;11.736;2023-03-15T05:24:00;2.00;99.90
12268;DHT22;6196;48.398;11.736;2023-03-15T05:26:27;1.90;99.90
12268;DHT22;6196;48.398;11.736;2023-03-15T05:28:54;1.90;99.90
12268;DHT22;6196;48.398;11.736;2023-03-15T05:31:21;2.00;99.90
12268;DHT22;6196;48.398;11.736;2023-03-15T05:33:48;1.90;99.90
12268;DHT22;6196;48.398;11.736;2023-03-15T05:36:15;1.90;99.90
12268;DHT22;6196;48.398;11.736;2023-03-15T05:38:42;1.90;99.90
12268;DHT22;6196;48.398;11.736;2023-03-15T05:41:11;1.90;99.90
12268;DHT22;6196;48.398;11.736;2023-03-15T05:43:43;2.00;99.90
12268;DHT22;6196;48.398;11.736;2023-03-15T05:46:10;2.00;99.90
12268;DHT22;6196;48.398;11.736;2023-03-15T05:48:37;1.90;99.90
12268;DHT22;6196;48.398;11.736;2023-03-15T05:51:04;1.90;99.90
12268;DHT22;6196;48.398;11.736;2023-03-15T05:53:31;2.00;99.90
12268;DHT22;6196;48.398;11.736;2023-03-15T05:55:58;2.10;99.90
12268;DHT22;6196;48.398;11.736;2023-03-15T05:58:25;2.10;99.90
12268;DHT22;6196;48.398;11.736;2023-03-15T06:00:52;2.00;99.90
12268;DHT22;6196;48.398;11.736;2023-03-15T06:03:19;1.90;99.90
12268;DHT22;6196;48.398;11.736;2023-03-15T06:05:46;1.90;99.90
12268;DHT22;6196;48.398;11.736;2023-03-15T06:08:12;1.90;99.90
12268;DHT22;6196;48.398;11.736;2023-03-15T06:10:39;2.00;99.90
12268;DHT22;6196;48.398;11.736;2023-03-15T06:13:06;1.90;99.90
12268;DHT22;6196;48.398;11.736;2023-03-15T06:15:33;1.90;99.90
12268;DHT22;6196;48.398;11.736;2023-03-15T06:18:00;1.90;99.90
12268;DHT22;6196;48.398;11.736;2023-03-15T06:20:27;1.90;99.90
12268;DHT22;6196;48.398;11.736;2023-03-15T06:22:54;1.90;99.90
12268;DHT22;6196;48.398;11.736;2023-03-15T06:25:21;2.00;99.90
12268;DHT22;6196;48.398;11.736;2023-03-15T06:27:47;2.10;99.90
12268;DHT22;6196;48.398;11.736;2023-03-15T06:30:14;2.00;99.90
12268;DHT22;6196;48.398;11.736;2023-03-15T06:32:42;2.10;99.90
12268;DHT22;6196;48.398;11.736;2023-03-15T06:35:09;2.00;99.90
12268;DHT22;6196;48.398;11.736;2023-03-15T06:37:36;2.10;99.90
12268;DHT22;6196;48.398;11.736;2023-03-15T06:40:05;2.00;99.90
12268;DHT22;6196;48.398;11.736;2023-03-15T06:42:34;2.10;99.90
12268;DHT22;6196;48.398;11.736;2023-03-15T06:45:02;2.30;99.90
12268;DHT22;6196;48.398;11.736;2023-03-15T06:47:29;2.60;99.90
12268;DHT22;6196;48.398;11.736;2023-03-15T06:49:56;2.90;99.90
12268;DHT22;6196;48.398;11.736;2023-03-15T06:52:23;2.90;99.90
12268;DHT22;6196;48.398;11.736;2023-03-15T06:54:50;3.00;99.90
12268;DHT22;6196;48.398;11.736;2023-03-15T06:57:17;3.00;99.90
12268;DHT22;6196;48.398;11.736;2023-03-15T06:59:44;3.10;99.90
12268;DHT22;6196;48.398;11.736;2023-03-15T07:02:15;3.20;99.90
12268;DHT22;6196;48.398;11.736;2023-03-15T07:04:44;3.30;99.90
12268;DHT22;6196;48.398;11.736;2023-03-15T07:07:11;3.40;99.90
12268;DHT22;6196;48.398;11.736;2023-03-15T07:09:39;3.40;99.90
12268;DHT22;6196;48.398;11.736;2023-03-15T07:12:07;3.60;99.90
12268;DHT22;6196;48.398;11.736;2023-03-15T07:14:35;3.50;99.90
12268;DHT22;6196;48.398;11.736;2023-03-15T07:17:03;3.60;99.90
12268;DHT22;6196;48.398;11.736;2023-03-15T07:19:30;3.70;99.90
12268;DHT22;6196;48.398;11.736;2023-03-15T07:21:57;3.70;99.90
12268;DHT22;6196;48.398;11.736;2023-03-15T07:24:23;3.80;99.90
12268;DHT22;6196;48.398;11.736;2023-03-15T07:26:50;3.70;99.90
12268;DHT22;6196;48.398;11.736;2023-03-15T07:29:22;3.90;99.90
12268;DHT22;6196;48.398;11.736;2023-03-15T07:31:50;3.80;99.90
12268;DHT22;6196;48.398;11.736;2023-03-15T07:34:17;4.10;99.90
12268;DHT22;6196;48.398;11.736;2023-03-15T07:36:44;4.10;99.90
12268;DHT22;6196;48.398;11.736;2023-03-15T07:39:11;4.00;99.90
12268;DHT22;6196;48.398;11.736;2023-03-15T07:41:38;4.30;99.90
12268;DHT22;6196;48.398;11.736;2023-03-15T07:44:05;4.30;99.90
12268;DHT22;6196;48.398;11.736;2023-03-15T07:46:32;4.30;99.90
12268;DHT22;6196;48.398;11.736;2023-03-15T07:48:59;4.40;99.90
12268;DHT22;6196;48.398;11.736;2023-03-15T07:51:26;4.40;99.90
12268;DHT22;6196;48.398;11.736;2023-03-15T07:53:53;4.50;99.90
12268;DHT22;6196;48.398;11.736;2023-03-15T07:56:20;4.70;99.90
12268;DHT22;6196;48.398;11.736;2023-03-15T07:58:47;4.90;99.90
12268;DHT22;6196;48.398;11.736;2023-03-15T08:01:14;5.10;99.90
12268;DHT22;6196;48.398;11.736;2023-03-15T08:03:40;4.90;99.90
12268;DHT22;6196;48.398;11.736;2023-03-15T08:06:07;5.50;99.90
12268;DHT22;6196;48.398;11.736;2023-03-15T08:08:34;5.50;99.90
12268;DHT22;6196;48.398;11.736;2023-03-15T08:11:01;5.00;99.90
12268;DHT22;6196;48.398;11.736;2023-03-15T08:13:30;5.00;99.90
12268;DHT22;6196;48.398;11.736;2023-03-15T08:15:57;5.10;99.90
12268;DHT22;6196;48.398;11.736;2023-03-15T08:18:24;5.30;99.90
12268;DHT22;6196;48.398;11.736;2023-03-15T08:20:54;5.10;99.90
12268;DHT22;6196;48.398;11.736;2023-03-15T08:23:22;5.30;99.90
12268;DHT22;6196;48.398;11.736;2023-03-15T08:25:49;5.10;99.90
12268;DHT22;6196;48.398;11.736;2023-03-15T08:28:16;4.90;99.90
12268;DHT22;6196;48.398;11.736;2023-03-15T08:30:43;5.00;99.90
12268;DHT22;6196;48.398;11.736;2023-03-15T08:33:10;5.00;99.90
12268;DHT22;6196;48.398;11.736;2023-03-15T08:35:38;4.80;99.90
12268;DHT22;6196;48.398;11.736;2023-03-15T08:38:05;5.00;99.90
12268;DHT22;6196;48.398;11.736;2023-03-15T08:40:32;5.40;99.90
12268;DHT22;6196;48.398;11.736;2023-03-15T08:42:59;5.90;99.90
12268;DHT22;6196;48.398;11.736;2023-03-15T08:45:26;6.80;99.90
12268;DHT22;6196;48.398;11.736;2023-03-15T08:47:54;7.30;99.90
12268;DHT22;6196;48.398;11.736;2023-03-15T08:50:22;7.50;99.90
12268;DHT22;6196;48.398;11.736;2023-03-15T08:52:49;7.00;99.90
12268;DHT22;6196;48.398;11.736;2023-03-15T08:55:16;6.50;99.90
12268;DHT22;6196;48.398;11.736;2023-03-15T08:57:43;6.70;99.90
12268;DHT22;6196;48.398;11.736;2023-03-15T09:00:11;6.60;99.90
12268;DHT22;6196;48.398;11.736;2023-03-15T09:02:49;6.30;99.90
12268;DHT22;6196;48.398;11.736;2023-03-15T09:05:18;5.60;99.90
12268;DHT22;6196;48.398;11.736;2023-03-15T09:07:46;5.60;99.90
12268;DHT22;6196;48.398;11.736;2023-03-15T09:10:15;5.50;99.90
12268;DHT22;6196;48.398;11.736;2023-03-15T09:12:45;5.60;99.90
12268;DHT22;6196;48.398;11.736;2023-03-15T09:15:13;5.50;99.90
12268;DHT22;6196;48.398;11.736;2023-03-15T09:17:41;5.80;99.90
12268;DHT22;6196;48.398;11.736;2023-03-15T09:20:10;6.30;99.90
12268;DHT22;6196;48.398;11.736;2023-03-15T09:22:43;6.40;99.90
12268;DHT22;6196;48.398;11.736;2023-03-15T09:25:16;6.50;99.90
12268;DHT22;6196;48.398;11.736;2023-03-15T09:27:43;6.90;99.90
12268;DHT22;6196;48.398;11.736;2023-03-15T09:30:10;6.70;99.90
12268;DHT22;6196;48.398;11.736;2023-03-15T09:32:37;7.30;99.90
12268;DHT22;6196;48.398;11.736;2023-03-15T09:35:07;6.70;99.90
12268;DHT22;6196;48.398;11.736;2023-03-15T09:37:35;6.40;99.90
12268;DHT22;6196;48.398;11.736;2023-03-15T09:40:02;6.90;99.90
12268;DHT22;6196;48.398;11.736;2023-03-15T09:42:37;6.90;99.90
12268;DHT22;6196;48.398;11.736;2023-03-15T09:48:25;7.30;99.90
12268;DHT22;6196;48.398;11.736;2023-03-15T09:51:11;7.10;99.90
12268;DHT22;6196;48.398;11.736;2023-03-15T09:53:55;6.90;99.90
12268;DHT22;6196;48.398;11.736;2023-03-15T09:56:27;7.10;99.90
12268;DHT22;6196;48.398;11.736;2023-03-15T09:59:03;7.10;99.90
12268;DHT22;6196;48.398;11.736;2023-03-15T10:01:37;7.00;99.90
12268;DHT22;6196;48.398;11.736;2023-03-15T10:04:17;6.80;99.90
12268;DHT22;6196;48.398;11.736;2023-03-15T10:06:54;6.70;99.90
12268;DHT22;6196;48.398;11.736;2023-03-15T10:09:25;6.50;99.90
12268;DHT22;6196;48.398;11.736;2023-03-15T10:12:09;6.50;99.90
12268;DHT22;6196;48.398;11.736;2023-03-15T10:20:27;8.70;99.90
12268;DHT22;6196;48.398;11.736;2023-03-15T10:23:09;8.30;99.90
12268;DHT22;6196;48.398;11.736;2023-03-15T10:25:38;8.00;99.90
12268;DHT22;6196;48.398;11.736;2023-03-15T10:28:26;7.50;99.90
12268;DHT22;6196;48.398;11.736;2023-03-15T10:31:00;7.30;99.90
12268;DHT22;6196;48.398;11.736;2023-03-15T10:33:37;7.50;99.90
12268;DHT22;6196;48.398;11.736;2023-03-15T10:36:14;7.30;99.90
12268;DHT22;6196;48.398;11.736;2023-03-15T10:38:44;6.80;99.90
12268;DHT22;6196;48.398;11.736;2023-03-15T10:41:14;6.70;99.90
12268;DHT22;6196;48.398;11.736;2023-03-15T10:44:01;6.70;99.90
12268;DHT22;6196;48.398;11.736;2023-03-15T10:46:30;6.50;99.90
12268;DHT22;6196;48.398;11.736;2023-03-15T10:49:09;7.30;99.90
12268;DHT22;6196;48.398;11.736;2023-03-15T10:51:43;7.90;99.90
12268;DHT22;6196;48.398;11.736;2023-03-15T10:54:18;8.70;99.90
12268;DHT22;6196;48.398;11.736;2023-03-15T10:56:49;8.60;99.90
12268;DHT22;6196;48.398;11.736;2023-03-15T10:59:23;8.90;99.90
12268;DHT22;6196;48.398;11.736;2023-03-15T11:01:53;9.00;99.90
12268;DHT22;6196;48.398;11.736;2023-03-15T11:04:42;9.40;99.90
12268;DHT22;6196;48.398;11.736;2023-03-15T11:07:13;9.40;99.90
12268;DHT22;6196;48.398;11.736;2023-03-15T11:09:52;9.30;99.90
12268;DHT22;6196;48.398;11.736;2023-03-15T11:14:54;8.90;99.90
12268;DHT22;6196;48.398;11.736;2023-03-15T11:17:26;9.10;99.90
12268;DHT22;6196;48.398;11.736;2023-03-15T11:19:58;9.50;99.90
12268;DHT22;6196;48.398;11.736;2023-03-15T11:22:35;9.30;99.90
12268;DHT22;6196;48.398;11.736;2023-03-15T11:25:02;9.40;99.90
12268;DHT22;6196;48.398;11.736;2023-03-15T11:27:30;10.50;99.90
12268;DHT22;6196;48.398;11.736;2023-03-15T11:29:58;11.10;99.90
12268;DHT22;6196;48.398;11.736;2023-03-15T11:32:30;11.20;99.90
12268;DHT22;6196;48.398;11.736;2023-03-15T11:35:04;10.20;99.90
12268;DHT22;6196;48.398;11.736;2023-03-15T11:43:00;11.60;99.60
12268;DHT22;6196;48.398;11.736;2023-03-15T11:48:27;11.70;99.90
12268;DHT22;6196;48.398;11.736;2023-03-15T11:51:00;11.70;98.90
12268;DHT22;6196;48.398;11.736;2023-03-15T11:53:36;12.30;99.70
12268;DHT22;6196;48.398;11.736;2023-03-15T11:56:21;11.70;96.30
12268;DHT22;6196;48.398;11.736;2023-03-15T11:59:10;11.40;96.10
12268;DHT22;6196;48.398;11.736;2023-03-15T12:01:48;11.60;97.30
12268;DHT22;6196;48.398;11.736;2023-03-15T12:06:56;10.70;97.50
12268;DHT22;6196;48.398;11.736;2023-03-15T12:12:05;10.20;96.30
12268;DHT22;6196;48.398;11.736;2023-03-15T12:18:04;9.30;97.30
12268;DHT22;6196;48.398;11.736;2023-03-15T12:20:40;9.00;97.00
12268;DHT22;6196;48.398;11.736;2023-03-15T12:25:57;10.40;95.80
12268;DHT22;6196;48.398;11.736;2023-03-15T12:28:41;11.90;93.40
12268;DHT22;6196;48.398;11.736;2023-03-15T12:31:43;13.50;91.30
12268;DHT22;6196;48.398;11.736;2023-03-15T12:45:36;13.80;87.10
12268;DHT22;6196;48.398;11.736;2023-03-15T12:55:50;12.60;82.70
12268;DHT22;6196;48.398;11.736;2023-03-15T12:58:33;10.80;87.40
12268;DHT22;6196;48.398;11.736;2023-03-15T13:01:04;10.00;90.00
12268;DHT22;6196;48.398;11.736;2023-03-15T13:03:34;9.60;91.50
12268;DHT22;6196;48.398;11.736;2023-03-15T13:06:10;9.40;91.70
12268;DHT22;6196;48.398;11.736;2023-03-15T13:12:15;10.30;92.20
12268;DHT22;6196;48.398;11.736;2023-03-15T13:17:58;11.90;90.10
12268;DHT22;6196;48.398;11.736;2023-03-15T13:20:39;11.00;87.40
12268;DHT22;6196;48.398;11.736;2023-03-15T13:23:27;10.80;90.70
12268;DHT22;6196;48.398;11.736;2023-03-15T13:26:20;11.30;90.20
12268;DHT22;6196;48.398;11.736;2023-03-15T13:29:10;11.40;88.20
12268;DHT22;6196;48.398;11.736;2023-03-15T13:31:40;11.80;89.20
12268;DHT22;6196;48.398;11.736;2023-03-15T13:34:21;11.50;89.10
12268;DHT22;6196;48.398;11.736;2023-03-15T13:36:55;10.70;90.90
12268;DHT22;6196;48.398;11.736;2023-03-15T13:39:31;10.30;91.30
12268;DHT22;6196;48.398;11.736;2023-03-15T13:42:03;9.70;92.50
12268;DHT22;6196;48.398;11.736;2023-03-15T13:44:32;9.80;91.70
12268;DHT22;6196;48.398;11.736;2023-03-15T13:46:59;9.70;92.20
12268;DHT22;6196;48.398;11.736;2023-03-15T13:49:31;9.70;92.70
12268;DHT22;6196;48.398;11.736;2023-03-15T13:52:02;9.60;92.70
12268;DHT22;6196;48.398;11.736;2023-03-15T13:54:38;9.40;94.00
12268;DHT22;6196;48.398;11.736;2023-03-15T13:57:12;9.50;94.30
12268;DHT22;6196;48.398;11.736;2023-03-15T14:02:18;9.80;93.80
12268;DHT22;6196;48.398;11.736;2023-03-15T14:04:57;9.30;92.30
12268;DHT22;6196;48.398;11.736;2023-03-15T14:07:37;9.20;94.60
12268;DHT22;6196;48.398;11.736;2023-03-15T14:10:35;9.20;93.30
12268;DHT22;6196;48.398;11.736;2023-03-15T14:13:24;8.70;95.00
12268;DHT22;6196;48.398;11.736;2023-03-15T14:16:04;8.90;94.20
12268;DHT22;6196;48.398;11.736;2023-03-15T14:18:37;8.80;95.30
12268;DHT22;6196;48.398;11.736;2023-03-15T14:21:12;8.80;95.50
12268;DHT22;6196;48.398;11.736;2023-03-15T14:23:44;8.50;95.70
12268;DHT22;6196;48.398;11.736;2023-03-15T14:26:22;8.20;95.90
12268;DHT22;6196;48.398;11.736;2023-03-15T14:29:03;8.20;96.10
12268;DHT22;6196;48.398;11.736;2023-03-15T14:31:40;8.00;96.60
12268;DHT22;6196;48.398;11.736;2023-03-15T14:34:29;7.90;97.20
12268;DHT22;6196;48.398;11.736;2023-03-15T14:37:05;7.30;97.00
12268;DHT22;6196;48.398;11.736;2023-03-15T14:39:40;7.10;99.10
12268;DHT22;6196;48.398;11.736;2023-03-15T14:42:11;6.90;99.90
12268;DHT22;6196;48.398;11.736;2023-03-15T14:44:38;6.30;99.90
12268;DHT22;6196;48.398;11.736;2023-03-15T14:47:14;6.10;99.90
12268;DHT22;6196;48.398;11.736;2023-03-15T14:49:41;5.90;99.90
12268;DHT22;6196;48.398;11.736;2023-03-15T14:52:11;6.10;99.90
12268;DHT22;6196;48.398;11.736;2023-03-15T14:54:42;6.10;99.90
12268;DHT22;6196;48.398;11.736;2023-03-15T14:57:12;6.20;99.90
12268;DHT22;6196;48.398;11.736;2023-03-15T14:59:39;6.20;99.90
12268;DHT22;6196;48.398;11.736;2023-03-15T15:02:08;6.00;99.90
12268;DHT22;6196;48.398;11.736;2023-03-15T15:04:41;6.10;99.90
12268;DHT22;6196;48.398;11.736;2023-03-15T15:07:11;6.10;99.90
12268;DHT22;6196;48.398;11.736;2023-03-15T15:09:44;6.00;99.90
12268;DHT22;6196;48.398;11.736;2023-03-15T15:12:13;6.10;99.90
12268;DHT22;6196;48.398;11.736;2023-03-15T15:14:40;6.10;99.90
12268;DHT22;6196;48.398;11.736;2023-03-15T15:17:08;6.20;99.90
12268;DHT22;6196;48.398;11.736;2023-03-15T15:19:35;6.20;99.90
12268;DHT22;6196;48.398;11.736;2023-03-15T15:22:02;6.40;99.90
12268;DHT22;6196;48.398;11.736;2023-03-15T15:24:30;6.60;99.90
12268;DHT22;6196;48.398;11.736;2023-03-15T15:26:56;6.80;99.90
12268;DHT22;6196;48.398;11.736;2023-03-15T15:29:23;6.80;99.90
12268;DHT22;6196;48.398;11.736;2023-03-15T15:31:50;6.80;99.90
12268;DHT22;6196;48.398;11.736;2023-03-15T15:34:17;6.70;99.90
12268;DHT22;6196;48.398;11.736;2023-03-15T15:36:45;6.40;99.90
12268;DHT22;6196;48.398;11.736;2023-03-15T15:39:23;6.20;99.90
12268;DHT22;6196;48.398;11.736;2023-03-15T15:41:53;6.30;99.90
12268;DHT22;6196;48.398;11.736;2023-03-15T15:44:21;6.30;99.90
12268;DHT22;6196;48.398;11.736;2023-03-15T15:46:52;6.40;99.90
12268;DHT22;6196;48.398;11.736;2023-03-15T15:49:19;6.30;99.90
12268;DHT22;6196;48.398;11.736;2023-03-15T15:51:47;6.40;99.90
12268;DHT22;6196;48.398;11.736;2023-03-15T15:54:17;6.30;99.90
12268;DHT22;6196;48.398;11.736;2023-03-15T15:56:51;6.10;99.90
12268;DHT22;6196;48.398;11.736;2023-03-15T15:59:19;6.20;99.90
12268;DHT22;6196;48.398;11.736;2023-03-15T16:01:47;6.20;99.90
12268;DHT22;6196;48.398;11.736;2023-03-15T16:04:32;6.20;99.90
12268;DHT22;6196;48.398;11.736;2023-03-15T16:07:00;6.00;99.90
12268;DHT22;6196;48.398;11.736;2023-03-15T16:09:30;6.00;99.90
12268;DHT22;6196;48.398;11.736;2023-03-15T16:12:02;5.80;99.90
12268;DHT22;6196;48.398;11.736;2023-03-15T16:14:35;5.70;99.90
12268;DHT22;6196;48.398;11.736;2023-03-15T16:17:02;5.50;99.90
12268;DHT22;6196;48.398;11.736;2023-03-15T16:19:30;5.40;99.90
12268;DHT22;6196;48.398;11.736;2023-03-15T16:21:57;5.40;99.90
12268;DHT22;6196;48.398;11.736;2023-03-15T16:24:30;5.40;99.90
12268;DHT22;6196;48.398;11.736;2023-03-15T16:27:03;5.30;99.90
12268;DHT22;6196;48.398;11.736;2023-03-15T16:29:35;5.30;99.90
12268;DHT22;6196;48.398;11.736;2023-03-15T16:32:04;5.40;99.90
12268;DHT22;6196;48.398;11.736;2023-03-15T16:34:48;5.30;99.90
12268;DHT22;6196;48.398;11.736;2023-03-15T16:37:23;5.30;99.90
12268;DHT22;6196;48.398;11.736;2023-03-15T16:39:52;5.40;99.90
12268;DHT22;6196;48.398;11.736;2023-03-15T16:42:23;5.40;99.90
12268;DHT22;6196;48.398;11.736;2023-03-15T16:44:52;5.30;99.90
12268;DHT22;6196;48.398;11.736;2023-03-15T16:47:19;5.20;99.90
12268;DHT22;6196;48.398;11.736;2023-03-15T16:49:46;5.10;99.90
12268;DHT22;6196;48.398;11.736;2023-03-15T16:52:14;5.10;99.90
12268;DHT22;6196;48.398;11.736;2023-03-15T16:54:43;5.20;99.90
12268;DHT22;6196;48.398;11.736;2023-03-15T16:57:19;5.10;99.90
12268;DHT22;6196;48.398;11.736;2023-03-15T16:59:47;5.00;99.90
12268;DHT22;6196;48.398;11.736;2023-03-15T17:02:26;5.00;99.90
12268;DHT22;6196;48.398;11.736;2023-03-15T17:04:54;4.90;99.90
12268;DHT22;6196;48.398;11.736;2023-03-15T17:07:24;4.90;99.90
12268;DHT22;6196;48.398;11.736;2023-03-15T17:09:55;4.70;99.90
12268;DHT22;6196;48.398;11.736;2023-03-15T17:12:25;4.60;99.90
12268;DHT22;6196;48.398;11.736;2023-03-15T17:14:54;4.70;99.90
12268;DHT22;6196;48.398;11.736;2023-03-15T17:17:24;4.70;99.90